createdAt,value
2022-10-30T00:01:38.198Z,13.07
2022-10-30T00:04:05.009Z,13.07
2022-10-30T00:06:31.769Z,13.07
2022-10-30T00:08:58.518Z,13.08
2022-10-30T00:11:25.269Z,13.08
2022-10-30T00:13:52.125Z,13.08
2022-10-30T00:16:18.877Z,13.08
2022-10-30T00:18:45.649Z,13.08
2022-10-30T00:21:13.741Z,13.08
2022-10-30T00:23:45.587Z,13.08
2022-10-30T00:26:12.362Z,13.08
2022-10-30T00:28:39.100Z,13.07
2022-10-30T00:31:06.033Z,13.09
2022-10-30T00:33:32.807Z,13.09
2022-10-30T00:35:59.933Z,13.09
2022-10-30T00:38:26.687Z,13.09
2022-10-30T00:40:53.460Z,13.08
2022-10-30T00:43:37.164Z,13.08
2022-10-30T00:46:35.954Z,13.07
2022-10-30T00:49:04.461Z,13.07
2022-10-30T00:51:31.296Z,13.05
2022-10-30T00:53:58.959Z,13.04
2022-10-30T00:56:25.705Z,13.03
2022-10-30T00:58:56.118Z,13.04
2022-10-30T01:01:24.771Z,13.03
2022-10-30T01:03:54.116Z,13.03
2022-10-30T01:06:20.932Z,13.03
2022-10-30T01:08:47.709Z,13.03
2022-10-30T01:11:14.541Z,13.01
2022-10-30T01:13:41.351Z,13.01
2022-10-30T01:16:34.259Z,13.00
2022-10-30T01:19:17.651Z,12.97
2022-10-30T01:22:09.059Z,12.97
2022-10-30T01:25:03.632Z,12.97
2022-10-30T01:27:55.362Z,12.98
2022-10-30T01:31:00.744Z,12.98
2022-10-30T01:33:50.818Z,12.97
2022-10-30T01:36:37.642Z,12.98
2022-10-30T01:39:12.733Z,12.98
2022-10-30T01:41:39.478Z,12.98
2022-10-30T01:44:12.215Z,12.96
2022-10-30T01:46:47.938Z,12.94
2022-10-30T01:49:33.143Z,12.94
2022-10-30T01:52:05.835Z,12.94
2022-10-30T01:54:47.195Z,12.93
2022-10-30T01:57:35.529Z,12.92
2022-10-30T02:00:10.493Z,12.91
2022-10-30T02:02:39.914Z,12.90
2022-10-30T02:05:13.203Z,12.89
2022-10-30T02:07:39.906Z,12.89
2022-10-30T02:10:07.420Z,12.87
2022-10-30T02:12:34.184Z,12.85
2022-10-30T02:15:01.008Z,12.86
2022-10-30T02:17:27.786Z,12.84
2022-10-30T02:19:54.527Z,12.83
2022-10-30T02:22:24.892Z,12.82
2022-10-30T02:24:52.212Z,12.81
2022-10-30T02:27:20.002Z,12.80
2022-10-30T02:29:46.786Z,12.79
2022-10-30T02:32:13.507Z,12.78
2022-10-30T02:34:40.262Z,12.77
2022-10-30T02:37:06.975Z,12.74
2022-10-30T02:39:33.694Z,12.73
2022-10-30T02:42:02.172Z,12.71
2022-10-30T02:44:28.957Z,12.70
2022-10-30T02:46:55.737Z,12.69
2022-10-30T02:49:22.484Z,12.66
2022-10-30T02:51:49.225Z,12.67
2022-10-30T02:54:16.021Z,12.65
2022-10-30T02:56:42.770Z,12.65
2022-10-30T02:59:09.583Z,12.63
2022-10-30T03:01:37.301Z,12.61
2022-10-30T03:04:04.332Z,12.59
2022-10-30T03:06:31.058Z,12.57
2022-10-30T03:08:57.935Z,12.55
2022-10-30T03:11:24.679Z,12.55
2022-10-30T03:13:54.102Z,12.57
2022-10-30T03:16:25.143Z,12.56
2022-10-30T03:18:52.204Z,12.55
2022-10-30T03:21:20.963Z,12.53
2022-10-30T03:23:47.962Z,12.52
2022-10-30T03:27:51.846Z,12.51
2022-10-30T03:30:18.593Z,12.47
2022-10-30T03:32:45.526Z,12.45
2022-10-30T03:35:13.619Z,12.43
2022-10-30T03:37:40.356Z,12.40
2022-10-30T03:40:08.393Z,12.38
2022-10-30T03:42:39.971Z,12.36
2022-10-30T03:45:08.695Z,12.34
2022-10-30T03:47:35.396Z,12.34
2022-10-30T03:50:02.959Z,12.33
2022-10-30T03:52:29.768Z,12.33
2022-10-30T03:54:56.394Z,12.34
2022-10-30T03:57:23.748Z,12.31
2022-10-30T04:00:07.395Z,12.32
2022-10-30T04:02:53.080Z,12.32
2022-10-30T04:05:21.111Z,12.31
2022-10-30T04:07:48.180Z,12.31
2022-10-30T04:10:19.412Z,12.30
2022-10-30T04:12:49.913Z,12.28
2022-10-30T04:15:16.736Z,12.27
2022-10-30T04:17:50.561Z,12.25
2022-10-30T04:20:18.602Z,12.23
2022-10-30T04:22:45.488Z,12.22
2022-10-30T04:25:13.250Z,12.22
2022-10-30T04:27:43.432Z,12.23
2022-10-30T04:30:11.510Z,12.22
2022-10-30T04:32:48.341Z,12.22
2022-10-30T04:35:16.165Z,12.23
2022-10-30T04:37:43.316Z,12.23
2022-10-30T04:40:10.544Z,12.24
2022-10-30T04:42:48.534Z,12.24
2022-10-30T04:45:15.498Z,12.24
2022-10-30T04:47:42.986Z,12.22
2022-10-30T04:50:09.778Z,12.20
2022-10-30T04:52:36.733Z,12.19
2022-10-30T04:55:03.813Z,12.19
2022-10-30T04:57:31.764Z,12.20
2022-10-30T04:59:59.037Z,12.21
2022-10-30T05:02:25.949Z,12.20
2022-10-30T05:04:53.073Z,12.25
2022-10-30T05:07:19.721Z,12.25
2022-10-30T05:09:46.467Z,12.24
2022-10-30T05:12:13.264Z,12.21
2022-10-30T05:14:48.893Z,12.20
2022-10-30T05:17:15.694Z,12.19
2022-10-30T05:19:42.904Z,12.19
2022-10-30T05:22:10.459Z,12.19
2022-10-30T05:24:37.400Z,12.17
2022-10-30T05:27:04.746Z,12.19
2022-10-30T05:29:31.555Z,12.18
2022-10-30T05:31:58.469Z,12.17
2022-10-30T05:34:35.860Z,12.16
2022-10-30T05:37:02.824Z,12.16
2022-10-30T05:39:29.445Z,12.15
2022-10-30T05:41:56.535Z,12.15
2022-10-30T05:44:40.768Z,12.15
2022-10-30T05:47:11.569Z,12.15
2022-10-30T05:49:39.007Z,12.13
2022-10-30T05:52:09.317Z,12.12
2022-10-30T05:54:36.473Z,12.10
2022-10-30T05:57:09.905Z,12.07
2022-10-30T05:59:38.129Z,12.06
2022-10-30T06:02:04.888Z,12.07
2022-10-30T06:04:31.997Z,12.09
2022-10-30T06:07:00.409Z,12.09
2022-10-30T06:09:26.999Z,12.10
2022-10-30T06:12:05.538Z,12.11
2022-10-30T06:14:43.157Z,12.12
2022-10-30T06:17:09.792Z,12.11
2022-10-30T06:19:54.371Z,12.09
2022-10-30T06:22:42.155Z,12.07
2022-10-30T06:25:15.886Z,12.06
2022-10-30T06:28:05.890Z,12.06
2022-10-30T06:30:33.398Z,12.05
2022-10-30T06:33:01.751Z,12.02
2022-10-30T06:35:28.938Z,12.02
2022-10-30T06:37:56.440Z,12.02
2022-10-30T06:40:24.330Z,12.04
2022-10-30T06:43:07.824Z,12.06
2022-10-30T06:45:41.943Z,12.07
2022-10-30T06:48:09.791Z,12.08
2022-10-30T06:50:40.825Z,12.07
2022-10-30T06:53:08.052Z,12.07
2022-10-30T06:55:34.926Z,12.06
2022-10-30T06:58:19.034Z,12.06
2022-10-30T07:01:08.399Z,12.02
2022-10-30T07:03:54.052Z,12.04
2022-10-30T07:06:20.901Z,12.02
2022-10-30T07:08:47.737Z,11.99
2022-10-30T07:11:14.992Z,11.97
2022-10-30T07:13:59.041Z,11.96
2022-10-30T07:16:46.068Z,11.94
2022-10-30T07:19:12.837Z,11.92
2022-10-30T07:21:39.447Z,11.90
2022-10-30T07:24:06.980Z,11.88
2022-10-30T07:26:38.184Z,11.88
2022-10-30T07:29:28.292Z,11.89
2022-10-30T07:32:14.397Z,11.91
2022-10-30T07:34:49.689Z,11.92
2022-10-30T07:37:22.293Z,11.93
2022-10-30T07:39:58.138Z,11.93
2022-10-30T07:42:43.585Z,11.94
2022-10-30T07:45:26.245Z,11.93
2022-10-30T07:48:15.643Z,11.93
2022-10-30T07:50:52.807Z,11.94
2022-10-30T07:53:19.641Z,11.92
2022-10-30T07:55:47.237Z,11.93
2022-10-30T07:58:13.822Z,11.92
2022-10-30T08:01:00.917Z,11.90
2022-10-30T08:03:29.877Z,11.90
2022-10-30T08:06:11.808Z,11.91
2022-10-30T08:08:40.519Z,11.93
2022-10-30T08:11:29.058Z,11.97
2022-10-30T08:13:57.442Z,11.99
2022-10-30T08:16:24.376Z,12.01
2022-10-30T08:18:51.274Z,11.99
2022-10-30T08:21:19.686Z,11.97
2022-10-30T08:23:55.422Z,11.97
2022-10-30T08:26:22.626Z,11.98
2022-10-30T08:28:49.337Z,11.99
2022-10-30T08:31:16.148Z,12.01
2022-10-30T08:34:01.297Z,12.04
2022-10-30T08:36:51.717Z,12.03
2022-10-30T08:39:18.782Z,12.03
2022-10-30T08:42:13.140Z,12.05
2022-10-30T08:44:42.339Z,12.08
2022-10-30T08:47:27.776Z,12.09
2022-10-30T08:49:54.387Z,12.10
2022-10-30T08:52:23.145Z,12.06
2022-10-30T08:54:54.376Z,12.08
2022-10-30T08:57:23.212Z,12.04
2022-10-30T08:59:50.638Z,12.02
2022-10-30T09:02:43.451Z,12.03
2022-10-30T09:05:49.283Z,12.03
2022-10-30T09:08:34.422Z,12.06
2022-10-30T09:11:01.039Z,12.09
2022-10-30T09:13:28.215Z,12.12
2022-10-30T09:15:59.635Z,12.14
2022-10-30T09:18:27.435Z,12.16
2022-10-30T09:20:54.202Z,12.18
2022-10-30T09:23:21.254Z,12.20
2022-10-30T09:25:51.510Z,12.22
2022-10-30T09:28:44.657Z,12.22
2022-10-30T09:31:34.249Z,12.21
2022-10-30T09:34:03.206Z,12.23
2022-10-30T09:36:43.958Z,12.24
2022-10-30T09:39:11.230Z,12.24
2022-10-30T09:42:08.516Z,12.22
2022-10-30T09:45:28.880Z,12.26
2022-10-30T09:48:24.880Z,12.29
2022-10-30T09:51:06.226Z,12.32
2022-10-30T09:53:50.101Z,12.34
2022-10-30T09:56:35.557Z,12.38
2022-10-30T09:59:25.834Z,12.41
2022-10-30T10:02:01.461Z,12.41
2022-10-30T10:04:35.319Z,12.42
2022-10-30T10:07:37.948Z,12.45
2022-10-30T10:10:38.568Z,12.47
2022-10-30T10:13:27.665Z,12.49
2022-10-30T10:16:15.857Z,12.51
2022-10-30T10:18:50.174Z,12.50
2022-10-30T10:21:22.158Z,12.48
2022-10-30T10:23:49.867Z,12.43
2022-10-30T10:26:23.889Z,12.41
2022-10-30T10:28:55.266Z,12.41
2022-10-30T10:31:34.823Z,12.42
2022-10-30T10:34:23.546Z,12.44
2022-10-30T10:37:28.405Z,12.44
2022-10-30T10:40:13.869Z,12.44
2022-10-30T10:42:45.218Z,12.45
2022-10-30T10:45:18.039Z,12.47
2022-10-30T10:48:22.418Z,12.48
2022-10-30T10:50:51.180Z,12.50
2022-10-30T10:53:42.879Z,12.50
2022-10-30T10:56:09.618Z,12.51
2022-10-30T10:58:49.327Z,12.52
2022-10-30T11:01:19.780Z,12.54
2022-10-30T11:03:55.911Z,12.54
2022-10-30T11:06:26.832Z,12.55
2022-10-30T11:08:54.505Z,12.57
2022-10-30T11:11:21.222Z,12.58
2022-10-30T11:13:48.205Z,12.60
2022-10-30T11:16:40.345Z,12.62
2022-10-30T11:19:08.736Z,12.64
2022-10-30T11:21:39.433Z,12.68
2022-10-30T11:24:32.085Z,12.71
2022-10-30T11:27:16.530Z,12.74
2022-10-30T11:29:57.666Z,12.76
2022-10-30T11:32:27.989Z,12.76
2022-10-30T11:35:02.079Z,12.76
2022-10-30T11:37:30.414Z,12.76
2022-10-30T11:40:08.304Z,12.76
2022-10-30T11:42:35.078Z,12.76
2022-10-30T11:45:01.955Z,12.76
2022-10-30T11:47:36.271Z,12.77
2022-10-30T11:50:08.014Z,12.79
2022-10-30T11:52:40.308Z,12.80
2022-10-30T11:55:21.037Z,12.79
2022-10-30T11:57:52.392Z,12.77
2022-10-30T12:00:27.317Z,12.76
2022-10-30T12:02:56.681Z,12.75
2022-10-30T12:05:29.779Z,12.71
2022-10-30T12:08:08.755Z,12.73
2022-10-30T12:10:42.175Z,12.72
2022-10-30T12:13:13.984Z,12.70
2022-10-30T12:15:40.910Z,12.67
2022-10-30T12:18:09.040Z,12.66
2022-10-30T12:20:38.544Z,12.62
2022-10-30T12:23:12.714Z,12.66
2022-10-30T12:25:39.415Z,12.66
2022-10-30T12:28:07.060Z,12.66
2022-10-30T12:30:37.269Z,12.68
2022-10-30T12:33:12.514Z,12.68
2022-10-30T12:35:58.526Z,12.68
2022-10-30T12:38:28.333Z,12.69
2022-10-30T12:41:28.733Z,12.70
2022-10-30T12:43:59.499Z,12.71
2022-10-30T12:46:36.391Z,12.72
2022-10-30T12:49:06.844Z,12.69
2022-10-30T12:51:42.250Z,12.75
2022-10-30T12:54:23.121Z,12.77
2022-10-30T12:56:54.435Z,12.77
2022-10-30T12:59:39.595Z,12.74
2022-10-30T13:02:12.551Z,12.75
2022-10-30T13:04:41.680Z,12.74
2022-10-30T13:07:43.335Z,12.69
2022-10-30T13:10:19.544Z,12.70
2022-10-30T13:12:47.453Z,12.68
2022-10-30T13:15:24.253Z,12.68
2022-10-30T13:17:51.049Z,12.66
2022-10-30T13:20:17.901Z,12.65
2022-10-30T13:22:52.329Z,12.65
2022-10-30T13:25:27.872Z,12.66
2022-10-30T13:28:07.493Z,12.64
2022-10-30T13:30:36.983Z,12.62
2022-10-30T13:33:15.036Z,12.59
2022-10-30T13:35:53.847Z,12.58
2022-10-30T13:38:29.101Z,12.58
2022-10-30T13:40:58.641Z,12.57
2022-10-30T13:43:30.496Z,12.55
2022-10-30T13:46:27.682Z,12.54
2022-10-30T13:49:22.565Z,12.53
2022-10-30T13:51:54.160Z,12.51
2022-10-30T13:54:22.334Z,12.47
2022-10-30T13:56:49.234Z,12.44
2022-10-30T13:59:22.022Z,12.40
2022-10-30T14:02:01.545Z,12.37
2022-10-30T14:04:42.999Z,12.33
2022-10-30T14:07:28.585Z,12.30
2022-10-30T14:10:21.528Z,12.29
2022-10-30T14:12:57.883Z,12.27
2022-10-30T14:15:32.268Z,12.26
2022-10-30T14:18:14.463Z,12.26
2022-10-30T14:20:46.416Z,12.25
2022-10-30T14:23:13.768Z,12.23
2022-10-30T14:25:40.981Z,12.23
2022-10-30T14:28:20.463Z,12.24
2022-10-30T14:30:47.196Z,12.23
2022-10-30T14:33:32.774Z,12.21
2022-10-30T14:38:55.551Z,12.15
2022-10-30T14:41:27.213Z,12.12
2022-10-30T14:44:22.130Z,12.09
2022-10-30T14:47:40.564Z,12.08
2022-10-30T14:50:07.276Z,12.04
2022-10-30T14:52:49.102Z,12.02
2022-10-30T14:55:23.931Z,11.99
2022-10-30T14:58:08.283Z,11.96
2022-10-30T15:00:38.242Z,11.92
2022-10-30T15:03:11.680Z,11.88
2022-10-30T15:05:58.806Z,11.83
2022-10-30T15:08:59.577Z,11.80
2022-10-30T15:11:37.887Z,11.79
2022-10-30T15:14:21.314Z,11.78
2022-10-30T15:16:53.465Z,11.77
2022-10-30T15:19:20.647Z,11.77
2022-10-30T15:21:50.109Z,11.76
2022-10-30T15:24:18.007Z,11.76
2022-10-30T15:26:47.677Z,11.75
2022-10-30T15:29:26.042Z,11.73
2022-10-30T15:31:59.770Z,11.70
2022-10-30T15:34:27.924Z,11.68
2022-10-30T15:36:54.661Z,11.66
2022-10-30T15:39:21.400Z,11.63
2022-10-30T15:44:48.962Z,11.59
2022-10-30T15:47:16.682Z,11.54
2022-10-30T15:49:51.483Z,11.51
2022-10-30T15:52:21.650Z,11.48
2022-10-30T15:54:49.503Z,11.45
2022-10-30T15:57:49.355Z,11.44
2022-10-30T16:00:08.040Z,11.41
2022-10-30T16:02:36.499Z,11.38
2022-10-30T16:05:19.778Z,11.37
2022-10-30T16:07:46.538Z,11.35
2022-10-30T16:10:14.642Z,11.33
2022-10-30T16:12:42.374Z,11.32
2022-10-30T16:15:17.946Z,11.31
2022-10-30T16:17:44.643Z,11.28
2022-10-30T16:20:11.332Z,11.26
2022-10-30T16:22:39.141Z,11.25
2022-10-30T16:25:10.129Z,11.23
2022-10-30T16:27:43.214Z,11.21
2022-10-30T16:30:14.881Z,11.19
2022-10-30T16:32:41.691Z,11.15
2022-10-30T16:35:08.396Z,11.13
2022-10-30T16:37:36.124Z,11.10
2022-10-30T16:40:10.799Z,11.08
2022-10-30T16:42:37.504Z,11.05
2022-10-30T16:45:13.258Z,11.03
2022-10-30T16:47:41.497Z,11.03
2022-10-30T16:50:10.508Z,11.02
2022-10-30T16:52:37.226Z,10.99
2022-10-30T16:55:15.856Z,10.96
2022-10-30T16:57:43.675Z,10.93
2022-10-30T17:00:31.512Z,10.90
2022-10-30T17:02:59.846Z,10.88
2022-10-30T17:05:33.796Z,10.87
2022-10-30T17:08:05.297Z,10.81
2022-10-30T17:10:43.470Z,10.80
2022-10-30T17:13:29.026Z,10.77
2022-10-30T17:15:55.974Z,10.74
2022-10-30T17:18:27.711Z,10.69
2022-10-30T17:21:02.476Z,10.64
2022-10-30T17:23:29.217Z,10.56
2022-10-30T17:25:55.906Z,10.55
2022-10-30T17:28:30.020Z,10.51
2022-10-30T17:30:56.824Z,10.47
2022-10-30T17:33:23.485Z,10.43
2022-10-30T17:35:50.301Z,10.41
2022-10-30T17:38:17.077Z,10.34
2022-10-30T17:40:43.778Z,10.36
2022-10-30T17:43:16.721Z,10.34
2022-10-30T17:45:43.577Z,10.32
2022-10-30T17:48:16.111Z,10.30
2022-10-30T17:50:43.550Z,10.29
2022-10-30T17:53:14.778Z,10.29
2022-10-30T17:55:41.533Z,10.28
2022-10-30T17:58:08.824Z,10.26
2022-10-30T18:00:38.662Z,10.24
2022-10-30T18:03:05.460Z,10.22
2022-10-30T18:05:32.340Z,10.18
2022-10-30T18:07:59.076Z,10.20
2022-10-30T18:10:25.743Z,10.19
2022-10-30T18:12:52.490Z,10.18
2022-10-30T18:15:41.860Z,10.17
2022-10-30T18:18:08.747Z,10.17
2022-10-30T18:20:35.924Z,10.17
2022-10-30T18:23:03.123Z,10.18
2022-10-30T18:25:32.230Z,10.19
2022-10-30T18:27:59.088Z,10.19
2022-10-30T18:30:25.926Z,10.21
2022-10-30T18:32:52.660Z,10.21
2022-10-30T18:35:28.746Z,10.21
2022-10-30T18:37:55.760Z,10.20
2022-10-30T18:40:22.912Z,10.20
2022-10-30T18:42:49.864Z,10.18
2022-10-30T18:45:19.733Z,10.15
2022-10-30T18:47:47.030Z,10.13
2022-10-30T18:50:13.910Z,10.11
2022-10-30T18:52:41.014Z,10.09
2022-10-30T18:55:19.706Z,10.09
2022-10-30T18:57:46.519Z,10.09
2022-10-30T19:00:13.899Z,10.03
2022-10-30T19:02:40.834Z,10.09
2022-10-30T19:05:18.570Z,10.11
2022-10-30T19:07:45.336Z,10.11
2022-10-30T19:10:12.082Z,10.12
2022-10-30T19:12:51.477Z,10.13
2022-10-30T19:15:38.810Z,10.12
2022-10-30T19:18:05.658Z,10.12
2022-10-30T19:20:50.955Z,10.12
2022-10-30T19:23:24.236Z,10.11
2022-10-30T19:25:51.311Z,10.08
2022-10-30T19:28:18.855Z,10.06
2022-10-30T19:30:50.303Z,10.06
2022-10-30T19:33:17.865Z,10.06
2022-10-30T19:35:44.672Z,10.05
2022-10-30T19:38:11.745Z,10.04
2022-10-30T19:40:39.057Z,10.00
2022-10-30T19:43:06.575Z,10.02
2022-10-30T19:45:33.764Z,10.02
2022-10-30T19:48:01.994Z,10.04
2022-10-30T19:50:37.419Z,10.04
2022-10-30T19:53:04.907Z,10.02
2022-10-30T19:55:32.728Z,10.02
2022-10-30T19:58:00.421Z,10.03
2022-10-30T20:00:28.611Z,10.04
2022-10-30T20:02:56.162Z,10.04
2022-10-30T20:05:25.195Z,10.03
2022-10-30T20:08:13.952Z,10.03
2022-10-30T20:10:48.304Z,10.00
2022-10-30T20:13:15.637Z,9.97
2022-10-30T20:15:42.286Z,9.95
2022-10-30T20:18:14.696Z,9.93
2022-10-30T20:20:49.085Z,9.91
2022-10-30T20:23:15.897Z,9.88
2022-10-30T20:25:42.819Z,9.85
2022-10-30T20:28:26.195Z,9.83
2022-10-30T20:30:53.222Z,9.81
2022-10-30T20:33:20.230Z,9.78
2022-10-30T20:35:47.766Z,9.77
2022-10-30T20:38:17.008Z,9.76
2022-10-30T20:40:44.025Z,9.75
2022-10-30T20:43:13.728Z,9.77
2022-10-30T20:45:40.584Z,9.78
2022-10-30T20:48:07.328Z,9.78
2022-10-30T20:50:34.041Z,9.77
2022-10-30T20:53:00.711Z,9.76
2022-10-30T20:55:27.496Z,9.73
2022-10-30T20:57:54.219Z,9.69
2022-10-30T21:00:21.167Z,9.68
2022-10-30T21:02:47.921Z,9.66
2022-10-30T21:05:38.029Z,9.64
2022-10-30T21:08:01.594Z,9.61
2022-10-30T21:10:30.613Z,9.58
2022-10-30T21:12:59.041Z,9.57
2022-10-30T21:15:28.806Z,9.55
2022-10-30T21:17:55.458Z,9.52
2022-10-30T21:20:22.401Z,9.49
2022-10-30T21:22:49.152Z,9.46
2022-10-30T21:25:15.991Z,9.47
2022-10-30T21:27:42.811Z,9.45
2022-10-30T21:30:10.912Z,9.44
2022-10-30T21:32:37.673Z,9.43
2022-10-30T21:35:04.495Z,9.41
2022-10-30T21:37:34.982Z,9.40
2022-10-30T21:40:01.695Z,9.37
2022-10-30T21:45:00.172Z,9.33
2022-10-30T21:47:26.812Z,9.30
2022-10-30T21:49:53.518Z,9.29
2022-10-30T21:52:20.200Z,9.26
2022-10-30T21:54:46.905Z,9.23
2022-10-30T21:57:13.630Z,9.21
2022-10-30T21:59:40.290Z,9.20
2022-10-30T22:02:07.116Z,9.18
2022-10-30T22:04:34.780Z,9.18
2022-10-30T22:07:01.498Z,9.17
2022-10-30T22:09:28.194Z,9.16
2022-10-30T22:11:55.000Z,9.14
2022-10-30T22:14:21.728Z,9.15
2022-10-30T22:16:48.457Z,9.16
2022-10-30T22:19:15.171Z,9.15
2022-10-30T22:21:41.910Z,9.14
2022-10-30T22:24:08.901Z,9.13
2022-10-30T22:26:35.743Z,9.12
2022-10-30T22:29:02.464Z,9.07
2022-10-30T22:31:29.825Z,9.08
2022-10-30T22:33:56.536Z,9.06
2022-10-30T22:36:24.728Z,9.04
2022-10-30T22:38:56.571Z,9.05
2022-10-30T22:41:24.152Z,9.04
2022-10-30T22:43:51.507Z,9.03
2022-10-30T22:46:18.557Z,9.04
2022-10-30T22:48:45.484Z,9.03
2022-10-30T22:51:16.361Z,9.02
2022-10-30T22:53:44.077Z,9.00
2022-10-30T22:56:20.772Z,9.00
2022-10-30T22:58:48.088Z,9.00
2022-10-30T23:01:26.000Z,9.02
2022-10-30T23:03:53.880Z,9.02
2022-10-30T23:06:20.637Z,9.02
2022-10-30T23:08:47.288Z,9.01
2022-10-30T23:11:14.111Z,9.00
2022-10-30T23:13:40.780Z,8.98
2022-10-30T23:16:09.549Z,8.96
2022-10-30T23:18:36.380Z,8.95
2022-10-30T23:21:07.055Z,8.94
2022-10-30T23:23:37.512Z,8.92
2022-10-30T23:26:06.014Z,8.91
2022-10-30T23:28:32.751Z,8.90
2022-10-30T23:30:59.405Z,8.89
2022-10-30T23:33:26.132Z,8.88
2022-10-30T23:35:58.494Z,8.86
2022-10-30T23:38:25.260Z,8.82
2022-10-30T23:40:51.855Z,8.79
2022-10-30T23:43:18.601Z,8.79
2022-10-30T23:45:45.224Z,8.78
2022-10-30T23:48:11.934Z,8.78
2022-10-30T23:50:38.665Z,8.77
2022-10-30T23:53:05.324Z,8.76
2022-10-30T23:55:32.040Z,8.76
2022-10-30T23:57:59.109Z,8.75
